RYR204M LIPE-LEPA
Flight info
| Callsign | RYR204M |
|---|---|
| Flight time | N/A |
| Altitude | 35000 |
| Route | LUPOS DCT EKPAL DCT PIDAD DCT TALEP DCT RARQU DCT BALEN/N0448F290 UT250 RIXOT |
| Aircraft | B738/M-SDE2E3FGHIRWXY/LB1 |
Departure
| Time | 2026-04-30 22:06 |
|---|---|
| Airport | Bologna Guglielmo Marconi Airport (LIPE) |
Arrival
| Time | N/A |
|---|---|
| Airport | Palma de Mallorca Airport (LEPA) |
| Time | Latitude | Longitude | Altitude | Speed | Heading |
|---|---|---|---|---|---|
| 2026-04-30 21:21 | 44.53072 | 11.29388 | 132 ft | 0 kts | 207° |
| 2026-04-30 21:39 | 44.53075 | 11.29390 | 132 ft | 2 kts | 207° |
| 2026-04-30 21:39 | 44.53091 | 11.29401 | 133 ft | 3 kts | 186° |
| 2026-04-30 21:39 | 44.53103 | 11.29400 | 133 ft | 2 kts | 122° |
| 2026-04-30 21:40 | 44.53106 | 11.29395 | 132 ft | 1 kts | 116° |
| 2026-04-30 21:46 | 44.53100 | 11.29412 | 133 ft | 5 kts | 115° |
| 2026-04-30 21:46 | 44.53074 | 11.29483 | 132 ft | 11 kts | 117° |
| 2026-04-30 21:46 | 44.53070 | 11.29559 | 130 ft | 6 kts | 45° |
| 2026-04-30 21:46 | 44.53075 | 11.29620 | 127 ft | 7 kts | 115° |
| 2026-04-30 21:47 | 44.53052 | 11.29687 | 127 ft | 8 kts | 118° |
| 2026-04-30 21:47 | 44.53026 | 11.29757 | 125 ft | 8 kts | 117° |
| 2026-04-30 21:47 | 44.53001 | 11.29825 | 126 ft | 8 kts | 117° |
| 2026-04-30 21:47 | 44.52978 | 11.29892 | 124 ft | 8 kts | 116° |
| 2026-04-30 21:48 | 44.52952 | 11.29964 | 125 ft | 9 kts | 116° |
| 2026-04-30 21:48 | 44.52922 | 11.30048 | 126 ft | 10 kts | 117° |
| 2026-04-30 21:48 | 44.52892 | 11.30131 | 128 ft | 9 kts | 117° |
| 2026-04-30 21:48 | 44.52873 | 11.30216 | 129 ft | 9 kts | 89° |
| 2026-04-30 21:49 | 44.52885 | 11.30295 | 128 ft | 4 kts | 46° |
| 2026-04-30 21:49 | 44.52922 | 11.30322 | 126 ft | 9 kts | 25° |
| 2026-04-30 21:49 | 44.53001 | 11.30332 | 125 ft | 15 kts | 335° |
| 2026-04-30 21:49 | 44.53073 | 11.30178 | 123 ft | 25 kts | 297° |
| 2026-04-30 21:50 | 44.53112 | 11.29966 | 124 ft | 19 kts | 241° |
| 2026-04-30 21:50 | 44.53055 | 11.29845 | 128 ft | 9 kts | 236° |
| 2026-04-30 21:50 | 44.53028 | 11.29766 | 125 ft | 9 kts | 269° |
| 2026-04-30 21:50 | 44.53052 | 11.29687 | 128 ft | 9 kts | 297° |
| 2026-04-30 21:51 | 44.53079 | 11.29612 | 129 ft | 8 kts | 296° |
| 2026-04-30 21:51 | 44.53104 | 11.29540 | 132 ft | 8 kts | 296° |
| 2026-04-30 21:51 | 44.53130 | 11.29469 | 132 ft | 8 kts | 297° |
| 2026-04-30 21:51 | 44.53155 | 11.29401 | 132 ft | 8 kts | 297° |
| 2026-04-30 21:52 | 44.53179 | 11.29335 | 133 ft | 7 kts | 297° |
| 2026-04-30 21:52 | 44.53202 | 11.29271 | 134 ft | 8 kts | 297° |
| 2026-04-30 21:52 | 44.53228 | 11.29197 | 134 ft | 10 kts | 294° |
| 2026-04-30 21:52 | 44.53263 | 11.29100 | 131 ft | 13 kts | 297° |
| 2026-04-30 21:53 | 44.53310 | 11.28970 | 124 ft | 16 kts | 296° |
| 2026-04-30 21:53 | 44.53363 | 11.28822 | 126 ft | 19 kts | 297° |
| 2026-04-30 21:53 | 44.53427 | 11.28646 | 121 ft | 21 kts | 297° |
| 2026-04-30 21:53 | 44.53491 | 11.28465 | 124 ft | 20 kts | 297° |
| 2026-04-30 21:54 | 44.53553 | 11.28294 | 124 ft | 20 kts | 296° |
| 2026-04-30 21:54 | 44.53614 | 11.28125 | 127 ft | 19 kts | 297° |
| 2026-04-30 21:54 | 44.53677 | 11.27950 | 126 ft | 20 kts | 296° |
| 2026-04-30 21:54 | 44.53742 | 11.27769 | 121 ft | 22 kts | 297° |
| 2026-04-30 21:55 | 44.53813 | 11.27574 | 122 ft | 22 kts | 295° |
| 2026-04-30 21:55 | 44.53861 | 11.27438 | 121 ft | 0 kts | 296° |
| 2026-04-30 22:04 | 44.53861 | 11.27437 | 97 ft | 1 kts | 296° |
| 2026-04-30 22:04 | 44.53914 | 11.27328 | 125 ft | 11 kts | 325° |
| 2026-04-30 22:05 | 44.53986 | 11.27263 | 125 ft | 13 kts | 327° |
| 2026-04-30 22:05 | 44.54078 | 11.27226 | 124 ft | 16 kts | 26° |
| 2026-04-30 22:05 | 44.54101 | 11.27322 | 124 ft | 0 kts | 115° |
| 2026-04-30 22:05 | 44.54099 | 11.27329 | 123 ft | 2 kts | 116° |
| 2026-04-30 22:06 | 44.54038 | 11.27500 | 123 ft | 56 kts | 117° |
| 2026-04-30 22:06 | 44.53213 | 11.29769 | 350 ft | 183 kts | 118° |
| 2026-04-30 22:06 | 44.52643 | 11.31365 | 1487 ft | 178 kts | 109° |
| 2026-04-30 22:07 | 44.52677 | 11.32985 | 2591 ft | 174 kts | 63° |
| 2026-04-30 22:07 | 44.53627 | 11.34112 | 3198 ft | 194 kts | 24° |
| 2026-04-30 22:07 | 44.54918 | 11.34779 | 3839 ft | 200 kts | 25° |
| 2026-04-30 22:07 | 44.56215 | 11.35538 | 4504 ft | 201 kts | 28° |
| 2026-04-30 22:08 | 44.57481 | 11.36362 | 5237 ft | 200 kts | 31° |
| 2026-04-30 22:08 | 44.58725 | 11.37244 | 5950 ft | 200 kts | 32° |
| 2026-04-30 22:08 | 44.59950 | 11.38163 | 6647 ft | 200 kts | 32° |
| 2026-04-30 22:08 | 44.61160 | 11.39097 | 7275 ft | 202 kts | 32° |
| 2026-04-30 22:09 | 44.62399 | 11.40069 | 7874 ft | 205 kts | 31° |
| 2026-04-30 22:09 | 44.63658 | 11.41062 | 8489 ft | 208 kts | 30° |
| 2026-04-30 22:09 | 44.64929 | 11.42023 | 9044 ft | 214 kts | 21° |
| 2026-04-30 22:09 | 44.66482 | 11.42255 | 9227 ft | 240 kts | 351° |
| 2026-04-30 22:10 | 44.68035 | 11.41248 | 9664 ft | 255 kts | 322° |
| 2026-04-30 22:10 | 44.69081 | 11.39210 | 10311 ft | 263 kts | 293° |
| 2026-04-30 22:10 | 44.69296 | 11.36641 | 10911 ft | 271 kts | 263° |
| 2026-04-30 22:10 | 44.68554 | 11.34183 | 11465 ft | 281 kts | 233° |
| 2026-04-30 22:11 | 44.65429 | 11.30723 | 12576 ft | 290 kts | 218° |
| 2026-04-30 22:11 | 44.63824 | 11.29038 | 13128 ft | 293 kts | 219° |
| 2026-04-30 22:11 | 44.62245 | 11.27214 | 13689 ft | 294 kts | 231° |
| 2026-04-30 22:12 | 44.61354 | 11.24683 | 14211 ft | 288 kts | 263° |
| 2026-04-30 22:12 | 44.61047 | 11.21914 | 14742 ft | 288 kts | 265° |
| 2026-04-30 22:12 | 44.60756 | 11.19116 | 15241 ft | 290 kts | 265° |
| 2026-04-30 22:12 | 44.60460 | 11.16336 | 15752 ft | 292 kts | 265° |
| 2026-04-30 22:13 | 44.60150 | 11.13505 | 16261 ft | 294 kts | 265° |
| 2026-04-30 22:13 | 44.59830 | 11.10650 | 16769 ft | 296 kts | 265° |
| 2026-04-30 22:13 | 44.59502 | 11.07774 | 17270 ft | 298 kts | 265° |
| 2026-04-30 22:13 | 44.59168 | 11.04887 | 17774 ft | 300 kts | 265° |
| 2026-04-30 22:14 | 44.58830 | 11.01983 | 18269 ft | 303 kts | 266° |
| 2026-04-30 22:14 | 44.58491 | 10.99094 | 18735 ft | 304 kts | 266° |
| 2026-04-30 22:14 | 44.58144 | 10.96152 | 19160 ft | 306 kts | 266° |
| 2026-04-30 22:14 | 44.57793 | 10.93190 | 19606 ft | 307 kts | 266° |
| 2026-04-30 22:15 | 44.57441 | 10.90227 | 20035 ft | 308 kts | 266° |
| 2026-04-30 22:15 | 44.57088 | 10.87255 | 20451 ft | 310 kts | 266° |
| 2026-04-30 22:15 | 44.56734 | 10.84293 | 20866 ft | 311 kts | 266° |
| 2026-04-30 22:15 | 44.56374 | 10.81286 | 21296 ft | 312 kts | 266° |
| 2026-04-30 22:16 | 44.56013 | 10.78282 | 21708 ft | 314 kts | 266° |
| 2026-04-30 22:16 | 44.55648 | 10.75242 | 22113 ft | 315 kts | 266° |
| 2026-04-30 22:17 | 44.53815 | 10.66326 | 23284 ft | 333 kts | 240° |
| 2026-04-30 22:17 | 44.52438 | 10.63690 | 23680 ft | 336 kts | 238° |
| 2026-04-30 22:17 | 44.49586 | 10.58451 | 24350 ft | 339 kts | 238° |
| 2026-04-30 22:18 | 44.48152 | 10.55820 | 24668 ft | 340 kts | 238° |
| 2026-04-30 22:18 | 44.45304 | 10.50551 | 25284 ft | 342 kts | 239° |
| 2026-04-30 22:19 | 44.42435 | 10.45217 | 25915 ft | 343 kts | 239° |
| 2026-04-30 22:19 | 44.41012 | 10.42575 | 26182 ft | 345 kts | 238° |
| 2026-04-30 22:19 | 44.38113 | 10.37192 | 26760 ft | 345 kts | 239° |
| 2026-04-30 22:20 | 44.36683 | 10.34533 | 27049 ft | 347 kts | 239° |
| 2026-04-30 22:20 | 44.33756 | 10.29111 | 27590 ft | 349 kts | 239° |
| 2026-04-30 22:20 | 44.32288 | 10.26398 | 27877 ft | 349 kts | 239° |
| 2026-04-30 22:21 | 44.30839 | 10.23721 | 28128 ft | 350 kts | 239° |
| 2026-04-30 22:21 | 44.29367 | 10.21001 | 28374 ft | 351 kts | 239° |
| 2026-04-30 22:21 | 44.27893 | 10.18278 | 28625 ft | 352 kts | 239° |
| 2026-04-30 22:21 | 44.26410 | 10.15541 | 28905 ft | 352 kts | 239° |
| 2026-04-30 22:22 | 44.24927 | 10.12807 | 29142 ft | 353 kts | 239° |
| 2026-04-30 22:22 | 44.23457 | 10.10100 | 29356 ft | 354 kts | 239° |
| 2026-04-30 22:22 | 44.21966 | 10.07356 | 29539 ft | 355 kts | 239° |
| 2026-04-30 22:22 | 44.20464 | 10.04594 | 29760 ft | 356 kts | 239° |
| 2026-04-30 22:23 | 44.18960 | 10.01833 | 29966 ft | 357 kts | 239° |
| 2026-04-30 22:23 | 44.17456 | 9.99073 | 30174 ft | 358 kts | 239° |
| 2026-04-30 22:23 | 44.15964 | 9.96338 | 30348 ft | 359 kts | 239° |
| 2026-04-30 22:23 | 44.14443 | 9.93552 | 30505 ft | 360 kts | 238° |
| 2026-04-30 22:24 | 44.12921 | 9.90768 | 30652 ft | 360 kts | 238° |
| 2026-04-30 22:24 | 44.11415 | 9.88017 | 30794 ft | 362 kts | 238° |
| 2026-04-30 22:24 | 44.09883 | 9.85217 | 30940 ft | 363 kts | 238° |
| 2026-04-30 22:24 | 44.08349 | 9.82419 | 31092 ft | 363 kts | 238° |
| 2026-04-30 22:25 | 44.06811 | 9.79617 | 31222 ft | 364 kts | 238° |
| 2026-04-30 22:25 | 44.05287 | 9.76841 | 31352 ft | 365 kts | 238° |
| 2026-04-30 22:25 | 44.03741 | 9.74030 | 31492 ft | 366 kts | 238° |
| 2026-04-30 22:25 | 44.02191 | 9.71215 | 31636 ft | 366 kts | 238° |
| 2026-04-30 22:26 | 43.99101 | 9.65607 | 31882 ft | 368 kts | 238° |
| 2026-04-30 22:26 | 43.97544 | 9.62786 | 32004 ft | 368 kts | 238° |
| 2026-04-30 22:26 | 43.95986 | 9.59965 | 32140 ft | 368 kts | 238° |
| 2026-04-30 22:27 | 43.94423 | 9.57134 | 32264 ft | 369 kts | 238° |
| 2026-04-30 22:27 | 43.92871 | 9.54326 | 32368 ft | 370 kts | 237° |
| 2026-04-30 22:27 | 43.89723 | 9.48650 | 32599 ft | 371 kts | 237° |
| 2026-04-30 22:28 | 43.86568 | 9.42972 | 32800 ft | 372 kts | 237° |
| 2026-04-30 22:28 | 43.85003 | 9.40159 | 32894 ft | 372 kts | 237° |
| 2026-04-30 22:29 | 43.80254 | 9.31636 | 33181 ft | 374 kts | 237° |
| 2026-04-30 22:29 | 43.78661 | 9.28783 | 33267 ft | 374 kts | 237° |
| 2026-04-30 22:30 | 43.72274 | 9.17369 | 33602 ft | 376 kts | 237° |
| 2026-04-30 22:31 | 43.67444 | 9.08768 | 33838 ft | 377 kts | 236° |
| 2026-04-30 22:32 | 43.62618 | 9.00198 | 34067 ft | 378 kts | 236° |
| 2026-04-30 22:32 | 43.59375 | 8.94452 | 34195 ft | 379 kts | 236° |
| 2026-04-30 22:33 | 43.54523 | 8.85874 | 34403 ft | 379 kts | 236° |
| 2026-04-30 22:33 | 43.51260 | 8.80116 | 34507 ft | 379 kts | 236° |
| 2026-04-30 22:34 | 43.46375 | 8.71564 | 34659 ft | 381 kts | 233° |
| 2026-04-30 22:35 | 43.42534 | 8.66514 | 34753 ft | 385 kts | 225° |
| 2026-04-30 22:36 | 43.34514 | 8.56752 | 34927 ft | 385 kts | 225° |
| 2026-04-30 22:36 | 43.32500 | 8.54283 | 34981 ft | 385 kts | 225° |
| 2026-04-30 22:37 | 43.26528 | 8.46944 | 35167 ft | 383 kts | 225° |
| 2026-04-30 22:37 | 43.24542 | 8.44503 | 35222 ft | 382 kts | 225° |
| 2026-04-30 22:38 | 43.16633 | 8.34802 | 35238 ft | 382 kts | 225° |
| 2026-04-30 22:39 | 43.10695 | 8.27541 | 35233 ft | 382 kts | 225° |
| 2026-04-30 22:40 | 42.98802 | 8.13059 | 35227 ft | 382 kts | 225° |
| 2026-04-30 22:41 | 42.88910 | 8.01072 | 35217 ft | 382 kts | 225° |
| 2026-04-30 22:43 | 42.76981 | 7.86690 | 35211 ft | 382 kts | 224° |
| 2026-04-30 22:44 | 42.69047 | 7.77172 | 35200 ft | 380 kts | 228° |
| 2026-04-30 22:45 | 42.57182 | 7.62987 | 35196 ft | 377 kts | 228° |
| 2026-04-30 22:47 | 42.45417 | 7.49000 | 35190 ft | 374 kts | 228° |
| 2026-04-30 22:48 | 42.37605 | 7.39751 | 35185 ft | 372 kts | 228° |
| 2026-04-30 22:49 | 42.26578 | 7.26750 | 35180 ft | 370 kts | 228° |
| 2026-04-30 22:51 | 42.14966 | 7.13122 | 35178 ft | 369 kts | 228° |
| 2026-04-30 22:52 | 42.09141 | 7.06308 | 35181 ft | 369 kts | 228° |
| 2026-04-30 22:53 | 42.01403 | 6.97273 | 35178 ft | 368 kts | 229° |
| 2026-04-30 22:53 | 41.95750 | 6.90357 | 35172 ft | 367 kts | 229° |
| 2026-04-30 22:55 | 41.86321 | 6.78779 | 35171 ft | 367 kts | 229° |
| 2026-04-30 22:56 | 41.78774 | 6.69570 | 35170 ft | 367 kts | 228° |
| 2026-04-30 22:57 | 41.69317 | 6.58079 | 35164 ft | 367 kts | 228° |
| 2026-04-30 22:58 | 41.61751 | 6.48918 | 35168 ft | 367 kts | 228° |
| 2026-04-30 22:59 | 41.50397 | 6.35229 | 35155 ft | 367 kts | 227° |